createdAt,value
2023-02-09T00:01:27.976Z,98587.88
2023-02-09T00:03:55.814Z,98584.88
2023-02-09T00:06:24.047Z,98598.38
2023-02-09T00:08:51.959Z,98590.53
2023-02-09T00:11:23.054Z,98599.63
2023-02-09T00:13:50.830Z,98602.13
2023-02-09T00:16:18.692Z,98604.03
2023-02-09T00:18:46.559Z,98604.06
2023-02-09T00:21:14.465Z,98590.28
2023-02-09T00:23:42.310Z,98592.59
2023-02-09T00:26:11.380Z,98598.91
2023-02-09T00:28:41.492Z,98597.81
2023-02-09T00:31:10.510Z,98599.81
2023-02-09T00:33:41.234Z,98594.69
2023-02-09T00:36:11.725Z,98596.66
2023-02-09T00:38:39.739Z,98592.91
2023-02-09T00:41:07.605Z,98592.69
2023-02-09T00:43:35.605Z,98594.09
2023-02-09T00:46:03.689Z,98589.25
2023-02-09T00:48:31.437Z,98598.47
2023-02-09T00:50:59.561Z,98594.63
2023-02-09T00:53:27.566Z,98591.56
2023-02-09T00:55:55.408Z,98600.50
2023-02-09T00:58:23.744Z,98595.88
2023-02-09T01:00:51.573Z,98594.72
2023-02-09T01:03:19.571Z,98608.00
2023-02-09T01:05:47.308Z,98601.00
2023-02-09T01:08:15.054Z,98608.97
2023-02-09T01:10:43.202Z,98601.53
2023-02-09T01:13:11.142Z,98598.69
2023-02-09T01:15:40.529Z,98602.03
2023-02-09T01:18:08.327Z,98597.66
2023-02-09T01:20:36.126Z,98605.38
2023-02-09T01:23:03.966Z,98606.22
2023-02-09T01:25:31.798Z,98603.41
2023-02-09T01:27:59.791Z,98604.03
2023-02-09T01:30:27.645Z,98616.28
2023-02-09T01:32:56.170Z,98611.06
2023-02-09T01:35:23.969Z,98610.09
2023-02-09T01:37:51.737Z,98618.25
2023-02-09T01:40:19.617Z,98613.88
2023-02-09T01:42:47.387Z,98612.28
2023-02-09T01:45:31.116Z,98609.47
2023-02-09T01:48:00.779Z,98614.97
2023-02-09T01:50:29.178Z,98608.72
2023-02-09T01:52:57.529Z,98614.41
2023-02-09T01:55:26.782Z,98613.94
2023-02-09T01:57:57.667Z,98607.16
2023-02-09T02:00:25.423Z,98607.47
2023-02-09T02:03:04.934Z,98608.25
2023-02-09T02:05:35.369Z,98608.81
2023-02-09T02:08:37.778Z,98607.97
2023-02-09T02:11:06.060Z,98604.44
2023-02-09T02:13:33.795Z,98604.34
2023-02-09T02:16:12.706Z,98607.78
2023-02-09T02:18:54.695Z,98592.75
2023-02-09T02:21:28.378Z,98593.59
2023-02-09T02:24:01.981Z,98594.19
2023-02-09T02:26:47.153Z,98592.25
2023-02-09T02:30:03.482Z,98595.28
2023-02-09T02:32:52.784Z,98588.13
2023-02-09T02:35:41.349Z,98596.06
2023-02-09T02:38:27.365Z,98588.91
2023-02-09T02:41:04.274Z,98597.59
2023-02-09T02:43:50.112Z,98587.41
2023-02-09T02:46:56.185Z,98588.09
2023-02-09T02:49:47.147Z,98581.91
2023-02-09T02:52:15.005Z,98575.16
2023-02-09T02:54:46.353Z,98585.19
2023-02-09T02:57:24.644Z,98590.63
2023-02-09T03:00:01.995Z,98583.97
2023-02-09T03:02:39.264Z,98581.22
2023-02-09T03:05:07.239Z,98576.47
2023-02-09T03:07:35.221Z,98578.38
2023-02-09T03:10:03.561Z,98577.94
2023-02-09T03:12:59.202Z,98575.78
2023-02-09T03:15:53.678Z,98575.31
2023-02-09T03:18:59.797Z,98575.28
2023-02-09T03:22:12.371Z,98574.94
2023-02-09T03:24:42.840Z,98575.75
2023-02-09T03:27:23.972Z,98569.56
2023-02-09T03:29:55.274Z,98568.84
2023-02-09T03:32:24.279Z,98584.75
2023-02-09T03:34:53.317Z,98581.53
2023-02-09T03:37:21.024Z,98577.47
2023-02-09T03:39:48.783Z,98573.53
2023-02-09T03:42:16.768Z,98571.66
2023-02-09T03:44:44.704Z,98576.41
2023-02-09T03:47:12.494Z,98568.41
2023-02-09T03:49:41.038Z,98562.06
2023-02-09T03:52:10.602Z,98558.69
2023-02-09T03:54:38.452Z,98562.28
2023-02-09T03:57:06.456Z,98562.06
2023-02-09T03:59:38.078Z,98553.28
2023-02-09T04:02:07.579Z,98556.66
2023-02-09T04:04:35.452Z,98553.31
2023-02-09T04:07:03.604Z,98554.72
2023-02-09T04:09:31.477Z,98554.59
2023-02-09T04:11:59.340Z,98549.50
2023-02-09T04:14:27.182Z,98549.50
2023-02-09T04:16:54.934Z,98553.28
2023-02-09T04:19:22.761Z,98547.78
2023-02-09T04:21:50.534Z,98549.47
2023-02-09T04:24:26.975Z,98550.59
2023-02-09T04:26:54.641Z,98549.34
2023-02-09T04:29:22.374Z,98549.09
2023-02-09T04:31:50.211Z,98547.94
2023-02-09T04:34:18.043Z,98546.56
2023-02-09T04:36:45.797Z,98545.59
2023-02-09T04:39:13.592Z,98546.28
2023-02-09T04:41:41.452Z,98548.66
2023-02-09T04:44:09.386Z,98545.59
2023-02-09T04:46:37.070Z,98553.06
2023-02-09T04:49:04.835Z,98540.72
2023-02-09T04:51:32.736Z,98540.72
2023-02-09T04:54:00.605Z,98546.00
2023-02-09T04:56:28.369Z,98545.53
2023-02-09T04:59:14.874Z,98549.97
2023-02-09T05:01:42.705Z,98545.19
2023-02-09T05:04:10.497Z,98540.66
2023-02-09T05:06:38.390Z,98541.91
2023-02-09T05:09:06.078Z,98539.25
2023-02-09T05:11:33.840Z,98533.03
2023-02-09T05:14:01.582Z,98539.66
2023-02-09T05:16:29.438Z,98539.09
2023-02-09T05:18:57.333Z,98531.22
2023-02-09T05:21:25.120Z,98527.41
2023-02-09T05:23:52.980Z,98520.34
2023-02-09T05:26:20.823Z,98522.97
2023-02-09T05:28:48.655Z,98521.41
2023-02-09T05:31:17.125Z,98512.31
2023-02-09T05:33:45.042Z,98518.41
2023-02-09T05:36:13.249Z,98507.69
2023-02-09T05:38:41.329Z,98506.72
2023-02-09T05:41:11.183Z,98505.91
2023-02-09T05:43:38.975Z,98498.09
2023-02-09T05:46:08.401Z,98488.34
2023-02-09T05:48:36.456Z,98501.75
2023-02-09T05:51:04.274Z,98499.06
2023-02-09T05:53:32.049Z,98498.34
2023-02-09T05:55:59.790Z,98494.53
2023-02-09T05:58:27.638Z,98489.16
2023-02-09T06:00:55.429Z,98485.47
2023-02-09T06:03:23.288Z,98481.75
2023-02-09T06:05:50.969Z,98493.56
2023-02-09T06:08:18.743Z,98488.06
2023-02-09T06:10:46.658Z,98479.84
2023-02-09T06:13:14.884Z,98492.84
2023-02-09T06:15:42.730Z,98479.13
2023-02-09T06:18:10.670Z,98492.00
2023-02-09T06:20:39.974Z,98487.13
2023-02-09T06:23:07.917Z,98484.47
2023-02-09T06:25:35.654Z,98484.44
2023-02-09T06:28:03.476Z,98479.44
2023-02-09T06:30:32.879Z,98481.06
2023-02-09T06:33:00.798Z,98480.56
2023-02-09T06:35:28.634Z,98478.25
2023-02-09T06:37:59.509Z,98480.47
2023-02-09T06:40:27.250Z,98491.28
2023-02-09T06:42:55.119Z,98485.56
2023-02-09T06:45:22.874Z,98485.09
2023-02-09T06:47:50.535Z,98484.91
2023-02-09T06:50:18.966Z,98480.50
2023-02-09T06:52:47.029Z,98476.75
2023-02-09T06:55:14.995Z,98477.84
2023-02-09T06:57:42.723Z,98483.31
2023-02-09T07:00:12.089Z,98476.88
2023-02-09T07:02:41.667Z,98475.44
2023-02-09T07:05:09.635Z,98469.22
2023-02-09T07:07:37.653Z,98466.38
2023-02-09T07:10:06.135Z,98465.59
2023-02-09T07:12:34.092Z,98455.81
2023-02-09T07:15:01.965Z,98461.06
2023-02-09T07:17:30.758Z,98463.19
2023-02-09T07:19:58.580Z,98464.22
2023-02-09T07:22:26.344Z,98453.03
2023-02-09T07:24:54.238Z,98456.75
2023-02-09T07:27:22.106Z,98454.38
2023-02-09T07:29:50.021Z,98449.69
2023-02-09T07:32:17.721Z,98444.81
2023-02-09T07:34:45.531Z,98446.72
2023-02-09T07:37:13.311Z,98449.31
2023-02-09T07:39:41.385Z,98440.84
2023-02-09T07:42:09.320Z,98440.50
2023-02-09T07:44:49.968Z,98443.84
2023-02-09T07:47:17.808Z,98447.53
2023-02-09T07:49:45.725Z,98435.28
2023-02-09T07:52:13.533Z,98441.00
2023-02-09T07:54:41.307Z,98436.03
2023-02-09T07:57:09.102Z,98434.72
2023-02-09T07:59:37.066Z,98435.19
2023-02-09T08:02:05.334Z,98435.06
2023-02-09T08:04:33.153Z,98429.06
2023-02-09T08:07:01.053Z,98423.56
2023-02-09T08:09:29.696Z,98430.34
2023-02-09T08:11:59.322Z,98427.44
2023-02-09T08:14:31.870Z,98427.31
2023-02-09T08:17:31.589Z,98426.25
2023-02-09T08:20:14.030Z,98428.56
2023-02-09T08:22:43.939Z,98423.78
2023-02-09T08:25:12.119Z,98426.97
2023-02-09T08:27:39.951Z,98422.31
2023-02-09T08:30:08.107Z,98423.97
2023-02-09T08:32:36.153Z,98426.69
2023-02-09T08:35:04.257Z,98426.13
2023-02-09T08:37:32.061Z,98430.97
2023-02-09T08:39:59.937Z,98427.13
2023-02-09T08:42:27.707Z,98425.69
2023-02-09T08:44:55.471Z,98427.44
2023-02-09T08:47:23.371Z,98421.47
2023-02-09T08:49:51.456Z,98422.94
2023-02-09T08:52:19.371Z,98420.72
2023-02-09T08:54:47.178Z,98420.25
2023-02-09T08:57:14.971Z,98421.94
2023-02-09T08:59:42.993Z,98430.72
2023-02-09T09:02:10.772Z,98433.28
2023-02-09T09:04:38.479Z,98430.97
2023-02-09T09:07:06.251Z,98431.78
2023-02-09T09:09:34.163Z,98423.81
2023-02-09T09:12:02.061Z,98422.78
2023-02-09T09:14:30.517Z,98429.19
2023-02-09T09:16:59.062Z,98420.00
2023-02-09T09:19:27.376Z,98420.03
2023-02-09T09:21:55.225Z,98421.63
2023-02-09T09:24:24.230Z,98425.66
2023-02-09T09:26:52.216Z,98430.88
2023-02-09T09:29:19.975Z,98430.53
2023-02-09T09:31:47.912Z,98433.56
2023-02-09T09:34:15.684Z,98433.84
2023-02-09T09:36:43.339Z,98436.25
2023-02-09T09:39:11.214Z,98437.91
2023-02-09T09:41:39.093Z,98434.56
2023-02-09T09:44:31.967Z,98435.84
2023-02-09T09:47:01.800Z,98423.34
2023-02-09T09:49:30.347Z,98432.22
2023-02-09T09:52:39.455Z,98425.66
2023-02-09T09:55:08.842Z,98420.09
2023-02-09T09:57:39.259Z,98426.13
2023-02-09T10:00:16.401Z,98432.53
2023-02-09T10:02:44.994Z,98431.50
2023-02-09T10:05:15.705Z,98423.66
2023-02-09T10:07:44.393Z,98438.09
2023-02-09T10:10:18.973Z,98431.50
2023-02-09T10:12:49.247Z,98431.16
2023-02-09T10:15:25.629Z,98429.00
2023-02-09T10:17:53.592Z,98425.97
2023-02-09T10:20:45.822Z,98429.78
2023-02-09T10:23:25.370Z,98428.13
2023-02-09T10:26:01.205Z,98422.03
2023-02-09T10:28:34.026Z,98434.06
2023-02-09T10:31:03.510Z,98435.69
2023-02-09T10:33:41.461Z,98443.41
2023-02-09T10:36:30.097Z,98435.41
2023-02-09T10:39:12.911Z,98431.69
2023-02-09T10:41:42.405Z,98426.09
2023-02-09T10:44:17.429Z,98437.66
2023-02-09T10:46:46.390Z,98428.81
2023-02-09T10:49:53.262Z,98433.81
2023-02-09T10:52:22.626Z,98440.06
2023-02-09T10:54:57.860Z,98439.22
2023-02-09T10:57:30.940Z,98436.63
2023-02-09T11:00:00.745Z,98438.19
2023-02-09T11:02:43.562Z,98432.81
2023-02-09T11:05:23.411Z,98437.81
2023-02-09T11:08:32.069Z,98434.38
2023-02-09T11:11:03.592Z,98432.69
2023-02-09T11:13:32.630Z,98437.81
2023-02-09T11:16:20.861Z,98436.81
2023-02-09T11:18:57.457Z,98432.44
2023-02-09T11:22:01.991Z,98438.59
2023-02-09T11:24:57.296Z,98446.41
2023-02-09T11:27:47.041Z,98443.88
2023-02-09T11:30:30.048Z,98461.38
2023-02-09T11:33:08.522Z,98460.63
2023-02-09T11:35:59.656Z,98453.66
2023-02-09T11:38:36.152Z,98457.38
2023-02-09T11:41:23.925Z,98462.78
2023-02-09T11:43:51.822Z,98458.66
2023-02-09T11:46:20.423Z,98450.00
2023-02-09T11:48:58.190Z,98448.31
2023-02-09T11:51:27.133Z,98448.53
2023-02-09T11:54:09.023Z,98447.13
2023-02-09T11:56:42.301Z,98457.66
2023-02-09T11:59:43.733Z,98453.53
2023-02-09T12:02:40.629Z,98452.97
2023-02-09T12:05:11.678Z,98458.34
2023-02-09T12:08:40.072Z,98454.22
2023-02-09T12:11:29.513Z,98470.84
2023-02-09T12:14:00.043Z,98472.78
2023-02-09T12:16:40.018Z,98473.69
2023-02-09T12:19:23.823Z,98476.41
2023-02-09T12:21:51.738Z,98468.78
2023-02-09T12:24:38.708Z,98473.97
2023-02-09T12:27:27.472Z,98473.16
2023-02-09T12:29:55.326Z,98476.78
2023-02-09T12:32:31.022Z,98473.50
2023-02-09T12:34:58.921Z,98471.25
2023-02-09T12:37:29.091Z,98476.44
2023-02-09T12:40:08.049Z,98473.09
2023-02-09T12:42:59.057Z,98469.94
2023-02-09T12:45:31.255Z,98471.28
2023-02-09T12:48:20.311Z,98469.13
2023-02-09T12:50:56.247Z,98473.00
2023-02-09T12:53:24.232Z,98469.81
2023-02-09T12:56:05.912Z,98464.78
2023-02-09T12:58:38.728Z,98475.47
2023-02-09T13:01:06.953Z,98469.66
2023-02-09T13:03:40.559Z,98471.41
2023-02-09T13:06:09.446Z,98475.13
2023-02-09T13:08:38.865Z,98470.34
2023-02-09T13:11:40.683Z,98475.69
2023-02-09T13:14:10.098Z,98467.59
2023-02-09T13:17:01.466Z,98457.50
2023-02-09T13:19:48.257Z,98466.31
2023-02-09T13:22:19.099Z,98470.09
2023-02-09T13:25:09.538Z,98465.13
2023-02-09T13:27:47.431Z,98462.69
2023-02-09T13:30:35.667Z,98467.81
2023-02-09T13:33:06.162Z,98470.66
2023-02-09T13:35:40.707Z,98460.44
2023-02-09T13:38:21.858Z,98460.44
2023-02-09T13:40:50.427Z,98466.56
2023-02-09T13:43:36.012Z,98471.69
2023-02-09T13:46:04.219Z,98471.69
2023-02-09T13:48:33.276Z,98476.03
2023-02-09T13:51:02.857Z,98479.47
2023-02-09T13:53:31.228Z,98473.53
2023-02-09T13:56:00.415Z,98471.09
2023-02-09T13:58:33.209Z,98469.34
2023-02-09T14:01:04.047Z,98470.31
2023-02-09T14:03:56.655Z,98469.63
2023-02-09T14:06:45.793Z,98468.06
2023-02-09T14:09:20.833Z,98470.75
2023-02-09T14:12:11.380Z,98470.66
2023-02-09T14:15:00.021Z,98461.38
2023-02-09T14:17:32.627Z,98472.41
2023-02-09T14:20:00.582Z,98471.50
2023-02-09T14:22:38.907Z,98478.34
2023-02-09T14:25:15.524Z,98473.25
2023-02-09T14:27:46.782Z,98478.34
2023-02-09T14:30:25.358Z,98476.50
2023-02-09T14:32:57.303Z,98474.84
2023-02-09T14:35:32.228Z,98477.53
2023-02-09T14:38:01.571Z,98480.97
2023-02-09T14:40:30.393Z,98490.44
2023-02-09T14:43:14.052Z,98486.06
2023-02-09T14:45:44.836Z,98487.00
2023-02-09T14:48:23.069Z,98500.00
2023-02-09T14:50:54.256Z,98500.00
2023-02-09T14:53:22.555Z,98484.69
2023-02-09T14:55:50.288Z,98499.34
2023-02-09T14:58:22.914Z,98503.41
2023-02-09T15:00:51.475Z,98498.22
2023-02-09T15:03:19.329Z,98489.50
2023-02-09T15:05:48.585Z,98492.19
2023-02-09T15:08:20.997Z,98495.06
2023-02-09T15:11:23.999Z,98498.75
2023-02-09T15:13:58.035Z,98505.94
2023-02-09T15:16:25.947Z,98496.22
2023-02-09T15:18:53.868Z,98487.88
2023-02-09T15:21:21.541Z,98501.78
2023-02-09T15:23:49.369Z,98501.03
2023-02-09T15:26:17.952Z,98495.84
2023-02-09T15:28:45.942Z,98513.00
2023-02-09T15:31:16.065Z,98502.63
2023-02-09T15:33:44.151Z,98510.16
2023-02-09T15:36:17.345Z,98516.13
2023-02-09T15:38:45.171Z,98507.56
2023-02-09T15:41:31.120Z,98508.56
2023-02-09T15:44:19.264Z,98515.53
2023-02-09T15:47:05.255Z,98508.47
2023-02-09T15:49:32.932Z,98504.88
2023-02-09T15:52:00.846Z,98506.50
2023-02-09T15:54:30.691Z,98508.88
2023-02-09T15:56:59.465Z,98512.13
2023-02-09T15:59:27.340Z,98504.09
2023-02-09T16:01:55.734Z,98505.78
2023-02-09T16:04:24.492Z,98498.69
2023-02-09T16:06:53.452Z,98502.94
2023-02-09T16:09:28.361Z,98492.72
2023-02-09T16:11:56.267Z,98496.09
2023-02-09T16:14:25.840Z,98498.75
2023-02-09T16:16:53.819Z,98496.25
2023-02-09T16:19:21.712Z,98505.00
2023-02-09T16:21:54.729Z,98507.84
2023-02-09T16:24:41.677Z,98520.09
2023-02-09T16:27:23.855Z,98511.63
2023-02-09T16:29:51.724Z,98508.28
2023-02-09T16:32:22.447Z,98513.59
2023-02-09T16:34:50.307Z,98506.91
2023-02-09T16:37:29.085Z,98506.06
2023-02-09T16:39:58.555Z,98514.84
2023-02-09T16:42:26.403Z,98508.81
2023-02-09T16:44:54.330Z,98513.84
2023-02-09T16:47:23.062Z,98514.69
2023-02-09T16:50:05.468Z,98516.28
2023-02-09T16:52:33.148Z,98517.88
2023-02-09T16:55:02.156Z,98518.28
2023-02-09T16:57:30.077Z,98519.03
2023-02-09T16:59:57.912Z,98519.88
2023-02-09T17:02:33.678Z,98516.28
2023-02-09T17:05:02.460Z,98517.88
2023-02-09T17:07:45.459Z,98519.59
2023-02-09T17:10:22.506Z,98513.38
2023-02-09T17:12:52.601Z,98509.94
2023-02-09T17:15:30.002Z,98511.53
2023-02-09T17:18:02.398Z,98500.47
2023-02-09T17:20:42.694Z,98509.94
2023-02-09T17:23:23.157Z,98502.28
2023-02-09T17:25:51.993Z,98499.09
2023-02-09T17:28:20.221Z,98496.75
2023-02-09T17:30:50.006Z,98503.94
2023-02-09T17:33:31.243Z,98499.88
2023-02-09T17:38:47.417Z,98505.78
2023-02-09T17:41:18.710Z,98507.59
2023-02-09T17:43:46.876Z,98516.47
2023-02-09T17:46:16.845Z,98518.47
2023-02-09T17:48:45.797Z,98519.59
2023-02-09T17:51:27.069Z,98518.59
2023-02-09T17:53:55.902Z,98508.28
2023-02-09T17:56:23.777Z,98523.03
2023-02-09T17:58:51.623Z,98519.75
2023-02-09T18:01:27.444Z,98523.25
2023-02-09T18:03:56.635Z,98513.97
2023-02-09T18:06:34.626Z,98519.22
2023-02-09T18:09:03.699Z,98522.78
2023-02-09T18:12:02.384Z,98523.69
2023-02-09T18:14:32.033Z,98522.25
2023-02-09T18:16:59.992Z,98519.06
2023-02-09T18:19:27.900Z,98513.09
2023-02-09T18:21:57.669Z,98512.31
2023-02-09T18:24:27.523Z,98516.81
2023-02-09T18:26:55.815Z,98523.84
2023-02-09T18:29:24.129Z,98517.03
2023-02-09T18:31:52.017Z,98527.50
2023-02-09T18:34:20.239Z,98527.78
2023-02-09T18:36:48.072Z,98523.56
2023-02-09T18:39:16.366Z,98528.06
2023-02-09T18:41:45.792Z,98532.69
2023-02-09T18:44:13.751Z,98535.47
2023-02-09T18:46:43.063Z,98537.38
2023-02-09T18:49:12.513Z,98528.06
2023-02-09T18:51:40.427Z,98534.22
2023-02-09T18:54:08.252Z,98538.56
2023-02-09T18:56:36.045Z,98527.56
2023-02-09T18:59:03.892Z,98532.75
2023-02-09T19:01:31.730Z,98523.44
2023-02-09T19:03:59.463Z,98530.44
2023-02-09T19:06:27.512Z,98528.06
2023-02-09T19:08:55.260Z,98528.16
2023-02-09T19:11:23.190Z,98529.13
2023-02-09T19:14:09.251Z,98530.22
2023-02-09T19:16:38.101Z,98537.66
2023-02-09T19:19:05.992Z,98545.56
2023-02-09T19:21:33.677Z,98544.09
2023-02-09T19:24:02.829Z,98546.06
2023-02-09T19:26:30.584Z,98549.81
2023-02-09T19:28:58.360Z,98550.94
2023-02-09T19:31:26.334Z,98556.19
2023-02-09T19:33:57.937Z,98554.56
2023-02-09T19:36:28.125Z,98564.84
2023-02-09T19:38:56.503Z,98566.84
2023-02-09T19:41:25.822Z,98572.09
2023-02-09T19:43:57.568Z,98574.13
2023-02-09T19:46:26.030Z,98567.13
2023-02-09T19:48:56.414Z,98567.75
2023-02-09T19:51:24.353Z,98569.38
2023-02-09T19:53:52.146Z,98576.13
2023-02-09T19:56:23.931Z,98577.75
2023-02-09T19:58:51.824Z,98577.59
2023-02-09T20:01:19.901Z,98577.47
2023-02-09T20:03:49.811Z,98582.50
2023-02-09T20:06:17.655Z,98583.22
2023-02-09T20:08:45.495Z,98587.28
2023-02-09T20:11:17.092Z,98594.78
2023-02-09T20:13:44.961Z,98590.97
2023-02-09T20:16:14.940Z,98587.94
2023-02-09T20:18:43.972Z,98590.06
2023-02-09T20:21:12.489Z,98588.75
2023-02-09T20:23:40.289Z,98597.91
2023-02-09T20:26:12.752Z,98594.91
2023-02-09T20:28:40.759Z,98589.66
2023-02-09T20:31:08.668Z,98598.28
2023-02-09T20:33:37.331Z,98596.44
2023-02-09T20:36:07.190Z,98604.94
2023-02-09T20:38:35.450Z,98601.44
2023-02-09T20:41:03.233Z,98612.59
2023-02-09T20:43:49.251Z,98615.84
2023-02-09T20:46:56.404Z,98603.69
2023-02-09T20:49:26.338Z,98609.09
2023-02-09T20:51:54.062Z,98609.91
2023-02-09T20:54:21.925Z,98602.94
2023-02-09T20:56:49.750Z,98596.13
2023-02-09T20:59:17.851Z,98603.63
2023-02-09T21:01:46.290Z,98604.53
2023-02-09T21:04:14.152Z,98590.81
2023-02-09T21:06:41.968Z,98599.50
2023-02-09T21:09:11.557Z,98609.09
2023-02-09T21:11:39.616Z,98600.59
2023-02-09T21:14:07.593Z,98599.19
2023-02-09T21:16:38.530Z,98602.94
2023-02-09T21:19:06.358Z,98615.16
2023-02-09T21:21:34.183Z,98615.28
2023-02-09T21:24:01.951Z,98606.81
2023-02-09T21:26:30.459Z,98605.41
2023-02-09T21:28:58.407Z,98604.00
2023-02-09T21:31:27.675Z,98605.91
2023-02-09T21:33:55.534Z,98612.09
2023-02-09T21:36:23.186Z,98601.13
2023-02-09T21:38:50.944Z,98601.53
2023-02-09T21:41:38.863Z,98613.25
2023-02-09T21:44:07.134Z,98605.88
2023-02-09T21:46:34.928Z,98610.44
2023-02-09T21:49:02.892Z,98611.41
2023-02-09T21:51:30.659Z,98606.41
2023-02-09T21:53:58.398Z,98609.13
2023-02-09T21:56:26.701Z,98607.78
2023-02-09T21:58:54.761Z,98614.03
2023-02-09T22:01:22.699Z,98614.38
2023-02-09T22:03:57.468Z,98612.06
2023-02-09T22:06:26.061Z,98612.31
2023-02-09T22:08:54.109Z,98622.88
2023-02-09T22:11:22.920Z,98616.16
2023-02-09T22:13:50.748Z,98619.03
2023-02-09T22:16:20.385Z,98607.13
2023-02-09T22:18:48.185Z,98616.63
2023-02-09T22:21:16.167Z,98628.53
2023-02-09T22:23:44.126Z,98628.66
2023-02-09T22:26:14.223Z,98625.28
2023-02-09T22:28:42.251Z,98627.75
2023-02-09T22:31:14.703Z,98635.38
2023-02-09T22:33:42.608Z,98631.00
2023-02-09T22:36:13.166Z,98633.28
2023-02-09T22:38:41.287Z,98638.91
2023-02-09T22:41:21.916Z,98629.00
2023-02-09T22:44:02.951Z,98638.06
2023-02-09T22:46:35.537Z,98633.47
2023-02-09T22:49:08.397Z,98633.13
2023-02-09T22:51:36.496Z,98630.16
2023-02-09T22:54:04.751Z,98636.66
2023-02-09T22:56:32.845Z,98630.03
2023-02-09T22:59:01.106Z,98629.47
2023-02-09T23:01:29.108Z,98641.00
2023-02-09T23:03:57.341Z,98641.44
2023-02-09T23:06:27.531Z,98647.75
2023-02-09T23:08:56.763Z,98653.31
2023-02-09T23:11:25.673Z,98655.56
2023-02-09T23:14:08.397Z,98656.28
2023-02-09T23:16:38.084Z,98655.44
2023-02-09T23:19:07.361Z,98650.38
2023-02-09T23:21:37.582Z,98653.16
2023-02-09T23:24:05.580Z,98652.53
2023-02-09T23:26:33.616Z,98660.44
2023-02-09T23:29:03.136Z,98646.84
2023-02-09T23:31:31.276Z,98647.09
2023-02-09T23:33:59.060Z,98666.16
2023-02-09T23:36:28.811Z,98659.50
2023-02-09T23:38:58.841Z,98659.50
2023-02-09T23:41:26.710Z,98666.59
2023-02-09T23:43:54.785Z,98666.84
2023-02-09T23:46:25.165Z,98670.56
2023-02-09T23:48:54.981Z,98673.97
2023-02-09T23:51:27.005Z,98669.91
2023-02-09T23:53:55.270Z,98681.22
2023-02-09T23:56:23.665Z,98680.59
2023-02-09T23:58:52.192Z,98681.72
